Time;durP1;ratioP1;P1;durP2;ratioP2;P2;SDS_P1;SDS_P2;PMS_P1;PMS_P2;Temp;Humidity;BMP_temperature;BMP_pressure;BME280_temperature;BME280_humidity;BME280_pressure;Samples;Min_cycle;Max_cycle;Signal;HPM_P1;HPM_P2
2022/11/21 00:01:12;;;;;;;;;;;;;;;4.65;76.21;99951.81;4861954;29;2347;-80
2022/11/21 00:03:39;;;;;;;;;;;;;;;4.68;75.67;99950.59;4861231;29;2377;-80
2022/11/21 00:06:05;;;;;;;;;;;;;;;4.66;76.14;99942.78;4858723;29;2353;-79
2022/11/21 00:08:32;;;;;;;;;;;;;;;4.66;76.29;99932.13;4851989;29;4654;-81
2022/11/21 00:10:58;;;;;;;;;;;;;;;4.67;76.27;99938.28;4831643;29;4630;-80
2022/11/21 00:13:25;;;;;;;;;;;;;;;4.70;75.86;99932.53;4843702;29;4508;-78
2022/11/21 00:15:51;;;;;;;;;;;;;;;4.70;75.79;99929.88;4832027;29;4668;-79
2022/11/21 00:18:18;;;;;;;;;;;;;;;4.70;76.00;99927.22;4847319;29;4341;-79
2022/11/21 00:20:44;;;;;;;;;;;;;;;4.67;75.99;99928.41;4828465;29;4763;-77
2022/11/21 00:23:11;;;;;;;;;;;;;;;4.68;76.05;99919.41;4848635;29;4122;-80
2022/11/21 00:25:38;;;;;;;;;;;;;;;4.66;76.18;99918.78;4854300;29;4702;-80
2022/11/21 00:28:04;;;;;;;;;;;;;;;4.67;75.96;99908.94;4854069;29;4754;-80
2022/11/21 00:30:31;;;;;;;;;;;;;;;4.67;76.12;99922.25;4846385;29;4740;-80
2022/11/21 00:32:57;;;;;;;;;;;;;;;4.70;76.07;99916.53;4846483;29;4748;-80
2022/11/21 00:35:24;;;;;;;;;;;;;;;4.69;76.06;99918.38;4843989;29;4786;-79
2022/11/21 00:37:50;;;;;;;;;;;;;;;4.70;75.63;99916.53;4847357;29;4686;-80
2022/11/21 00:40:17;;;;;;;;;;;;;;;4.69;76.23;99922.91;4846239;29;4705;-80
2022/11/21 00:42:43;;;;;;;;;;;;;;;4.26;75.71;99840.38;4846000;29;4813;-80
2022/11/21 00:45:10;;;;;;;;;;;;;;;4.72;76.10;99912.66;4846118;29;4769;-79
2022/11/21 00:47:36;;;;;;;;;;;;;;;4.71;75.75;99908.34;4846845;29;4697;-79
2022/11/21 00:50:06;;;;;;;;;;;;;;;4.72;75.79;99901.16;4844871;29;4723;-80
2022/11/21 00:52:32;;;;;;;;;;;;;;;4.70;76.53;99905.88;4828831;29;4671;-79
2022/11/21 00:54:59;;;;;;;;;;;;;;;4.68;75.71;99906.06;4830617;29;4639;-79
2022/11/21 00:57:25;;;;;;;;;;;;;;;4.70;76.13;99897.84;4846622;29;4642;-80
2022/11/21 00:59:52;;;;;;;;;;;;;;;4.71;75.92;99897.69;4847027;29;4648;-80
2022/11/21 01:02:19;;;;;;;;;;;;;;;4.71;76.11;99876.34;4843050;29;4838;-80
2022/11/21 01:04:45;;;;;;;;;;;;;;;4.70;76.05;99866.66;4831089;29;4902;-79
2022/11/21 01:07:11;;;;;;;;;;;;;;;4.66;75.88;99861.94;4844086;29;4710;-80
2022/11/21 01:09:38;;;;;;;;;;;;;;;4.68;76.17;99858.06;4831030;29;4839;-82
2022/11/21 01:12:05;;;;;;;;;;;;;;;4.69;76.15;99861.53;4844886;29;4743;-80
2022/11/21 01:14:31;;;;;;;;;;;;;;;4.72;75.80;99850.47;4846323;29;4702;-79
2022/11/21 01:16:58;;;;;;;;;;;;;;;4.69;75.99;99850.88;4829348;29;4532;-81
2022/11/21 01:19:24;;;;;;;;;;;;;;;4.70;76.07;99857.84;4846127;29;4706;-80
2022/11/21 01:21:51;;;;;;;;;;;;;;;4.72;75.98;99858.47;4830703;29;4633;-79
2022/11/21 01:24:17;;;;;;;;;;;;;;;4.70;75.70;99857.84;4845538;29;4669;-80
2022/11/21 01:26:44;;;;;;;;;;;;;;;4.68;76.31;99849.25;4845996;29;4876;-79
2022/11/21 01:29:10;;;;;;;;;;;;;;;4.68;75.85;99846.56;4845675;29;4631;-79
2022/11/21 01:31:37;;;;;;;;;;;;;;;4.67;76.28;99835.06;4846656;29;4157;-81
2022/11/21 01:34:03;;;;;;;;;;;;;;;4.67;76.08;99842.25;4844511;29;4843;-80
2022/11/21 01:36:30;;;;;;;;;;;;;;;4.66;75.76;99835.28;4848895;29;4095;-81
2022/11/21 01:38:57;;;;;;;;;;;;;;;4.66;76.13;99840.59;4844697;29;4746;-81
2022/11/21 01:41:24;;;;;;;;;;;;;;;4.67;75.94;99837.72;4832953;29;4682;-80
2022/11/21 01:43:51;;;;;;;;;;;;;;;4.67;76.00;99837.72;4829663;29;4442;-79
2022/11/21 01:46:17;;;;;;;;;;;;;;;4.68;76.03;99843.91;4845923;29;4959;-79
2022/11/21 01:48:44;;;;;;;;;;;;;;;4.71;75.95;99840.84;4847372;29;4735;-79
2022/11/21 01:51:10;;;;;;;;;;;;;;;4.69;75.99;99832.19;4828372;29;4738;-80
2022/11/21 01:53:37;;;;;;;;;;;;;;;4.67;76.08;99831.56;4845614;29;4783;-79
2022/11/21 01:56:03;;;;;;;;;;;;;;;4.68;76.12;99831.38;4849649;29;4631;-81
2022/11/21 01:58:30;;;;;;;;;;;;;;;4.66;76.21;99821.94;4848478;29;4579;-78
2022/11/21 02:00:56;;;;;;;;;;;;;;;4.65;76.12;99818.44;4847546;29;4715;-80
2022/11/21 02:03:23;;;;;;;;;;;;;;;4.73;75.73;99820.91;4858091;29;3918;-79
2022/11/21 02:05:49;;;;;;;;;;;;;;;4.71;75.97;99824.84;4835714;29;4038;-79
2022/11/21 02:08:16;;;;;;;;;;;;;;;4.71;75.83;99820.31;4844805;29;4537;-80
2022/11/21 02:10:42;;;;;;;;;;;;;;;4.70;75.81;99820.50;4849054;29;4558;-80
2022/11/21 02:13:09;;;;;;;;;;;;;;;4.68;76.01;99812.72;4847173;29;4641;-80
2022/11/21 02:15:35;;;;;;;;;;;;;;;4.72;76.03;99808.63;4832173;29;4759;-80
2022/11/21 02:18:02;;;;;;;;;;;;;;;4.76;75.61;99815.22;4842468;29;4542;-80
2022/11/21 02:20:28;;;;;;;;;;;;;;;4.70;76.01;99807.16;4848423;29;4706;-80
2022/11/21 02:22:55;;;;;;;;;;;;;;;4.68;75.94;99815.38;4847915;29;4511;-80
2022/11/21 02:25:22;;;;;;;;;;;;;;;4.69;76.19;99816.19;4848729;29;4590;-79
2022/11/21 02:27:48;;;;;;;;;;;;;;;4.68;75.99;99799.38;4832578;29;4598;-79
2022/11/21 02:30:15;;;;;;;;;;;;;;;4.69;75.97;99808.19;4826139;29;4404;-81
2022/11/21 02:32:41;;;;;;;;;;;;;;;4.70;75.76;99807.16;4832203;29;4698;-79
2022/11/21 02:35:08;;;;;;;;;;;;;;;4.71;75.91;99806.16;4833354;29;4628;-79
2022/11/21 02:37:35;;;;;;;;;;;;;;;4.68;76.23;99803.88;4828661;29;4628;-82
2022/11/21 02:40:01;;;;;;;;;;;;;;;4.66;76.17;99801.41;4836447;29;4466;-81
2022/11/21 02:42:28;;;;;;;;;;;;;;;4.70;75.94;99799.97;4847341;29;4632;-79
2022/11/21 02:44:55;;;;;;;;;;;;;;;4.74;75.73;99798.56;4848209;29;4566;-79
2022/11/21 02:47:21;;;;;;;;;;;;;;;4.71;76.14;99798.16;4841499;29;4627;-80
2022/11/21 02:49:48;;;;;;;;;;;;;;;4.67;75.97;99797.72;4847447;29;4603;-79
2022/11/21 02:52:14;;;;;;;;;;;;;;;4.72;75.81;99800.59;4829386;29;4702;-79
2022/11/21 02:54:41;;;;;;;;;;;;;;;4.72;75.87;99799.78;4844538;29;4589;-79
2022/11/21 02:57:07;;;;;;;;;;;;;;;4.70;75.89;99799.97;4847730;29;4638;-79
2022/11/21 02:59:34;;;;;;;;;;;;;;;4.67;76.27;99799.56;4832907;29;4560;-79
2022/11/21 03:02:01;;;;;;;;;;;;;;;4.66;76.10;99806.75;4843934;29;4491;-80
2022/11/21 03:04:27;;;;;;;;;;;;;;;4.70;76.13;99801.81;4847628;29;4636;-82
2022/11/21 03:06:54;;;;;;;;;;;;;;;4.69;76.10;99798.34;4848998;29;4532;-80
2022/11/21 03:09:20;;;;;;;;;;;;;;;4.67;76.05;99789.72;4848081;29;5167;-78
2022/11/21 03:11:47;;;;;;;;;;;;;;;4.68;76.17;99788.72;4852745;29;4368;-80
2022/11/21 03:14:13;;;;;;;;;;;;;;;4.65;75.93;99786.44;4857281;29;4000;-79
2022/11/21 03:16:40;;;;;;;;;;;;;;;4.72;76.00;99775.78;4860264;29;4593;-79
2022/11/21 03:19:06;;;;;;;;;;;;;;;4.67;76.25;99772.88;4856905;29;4358;-79
2022/11/21 03:21:33;;;;;;;;;;;;;;;4.64;76.37;99770.63;4840489;29;4317;-78
2022/11/21 03:23:59;;;;;;;;;;;;;;;4.65;76.15;99766.94;4856949;29;4726;-79
2022/11/21 03:26:26;;;;;;;;;;;;;;;4.66;76.01;99766.72;4854495;29;4864;-79
2022/11/21 03:28:53;;;;;;;;;;;;;;;4.67;75.97;99757.69;4844023;29;3926;-78
2022/11/21 03:31:19;;;;;;;;;;;;;;;4.68;75.63;99754.03;4855511;29;3885;-81
2022/11/21 03:33:46;;;;;;;;;;;;;;;4.70;75.95;99761.81;4840447;29;4596;-80
2022/11/21 03:36:12;;;;;;;;;;;;;;;4.68;75.99;99758.53;4855581;29;4077;-80
2022/11/21 03:38:39;;;;;;;;;;;;;;;4.68;75.81;99753.22;4836505;29;4001;-80
2022/11/21 03:41:28;;;;;;;;;;;;;;;4.68;75.91;99754.03;4840592;29;4415;-79
2022/11/21 03:43:52;;;;;;;;;;;;;;;4.69;75.85;99750.31;4855609;29;4613;-79
2022/11/21 03:46:19;;;;;;;;;;;;;;;4.69;75.73;99754.84;4841477;29;4592;-79
2022/11/21 03:48:45;;;;;;;;;;;;;;;4.67;76.13;99748.88;4852165;29;4744;-80
2022/11/21 03:51:12;;;;;;;;;;;;;;;4.68;75.66;99750.53;4839779;29;4309;-82
2022/11/21 03:53:39;;;;;;;;;;;;;;;4.70;75.82;99746.63;4857596;29;4273;-79
2022/11/21 03:56:05;;;;;;;;;;;;;;;4.70;75.84;99732.47;4856365;29;4430;-80
2022/11/21 03:58:32;;;;;;;;;;;;;;;4.69;75.86;99744.19;4858580;29;4253;-80
2022/11/21 04:00:58;;;;;;;;;;;;;;;4.70;75.53;99745.81;4857680;29;4561;-81
2022/11/21 04:03:25;;;;;;;;;;;;;;;4.68;75.89;99739.88;4854436;29;4282;-79
2022/11/21 04:05:51;;;;;;;;;;;;;;;4.66;75.83;99740.06;4844939;29;4495;-79
2022/11/21 04:08:18;;;;;;;;;;;;;;;4.68;75.77;99745.22;4854001;29;4550;-80
2022/11/21 04:10:44;;;;;;;;;;;;;;;4.67;75.65;99747.03;4857314;29;4439;-78
2022/11/21 04:13:14;;;;;;;;;;;;;;;4.69;75.85;99754.84;4840857;29;4220;-80
2022/11/21 04:15:42;;;;;;;;;;;;;;;4.67;75.78;99748.88;4838906;29;4549;-79
2022/11/21 04:18:08;;;;;;;;;;;;;;;4.65;75.89;99740.28;4844444;29;3853;-79
2022/11/21 04:20:35;;;;;;;;;;;;;;;4.68;75.76;99746.03;4857725;29;4570;-80
2022/11/21 04:23:02;;;;;;;;;;;;;;;4.68;75.55;99731.88;4860430;29;4677;-79
2022/11/21 04:25:28;;;;;;;;;;;;;;;4.67;75.67;99735.53;4853794;29;4538;-79
2022/11/21 04:27:55;;;;;;;;;;;;;;;4.69;75.74;99736.16;4864724;29;4461;-79
2022/11/21 04:30:21;;;;;;;;;;;;;;;4.68;75.23;99726.53;4861621;29;4747;-79
2022/11/21 04:32:48;;;;;;;;;;;;;;;4.71;75.70;99731.47;4865908;29;4445;-79
2022/11/21 04:35:14;;;;;;;;;;;;;;;4.69;75.70;99736.16;4852304;29;4510;-79
2022/11/21 04:37:41;;;;;;;;;;;;;;;4.70;75.43;99740.47;4864956;29;4302;-81
2022/11/21 04:40:08;;;;;;;;;;;;;;;4.68;75.67;99730.03;4854152;29;4554;-81
2022/11/21 04:42:34;;;;;;;;;;;;;;;4.70;75.84;99725.28;4858173;29;4491;-80
2022/11/21 04:45:01;;;;;;;;;;;;;;;4.66;75.83;99724.06;4868478;29;4599;-80
2022/11/21 04:47:27;;;;;;;;;;;;;;;4.69;75.79;99731.66;4849856;29;4112;-80
2022/11/21 04:49:54;;;;;;;;;;;;;;;4.73;75.67;99737.41;4865010;29;4177;-79
2022/11/21 04:52:21;;;;;;;;;;;;;;;4.70;75.82;99732.47;4868079;29;4083;-80
2022/11/21 04:54:48;;;;;;;;;;;;;;;4.75;75.40;99719.34;4866173;29;4583;-80
2022/11/21 04:57:14;;;;;;;;;;;;;;;4.73;75.47;99732.06;4851068;29;4518;-79
2022/11/21 04:59:41;;;;;;;;;;;;;;;4.72;75.51;99727.75;4859170;29;4651;-79
2022/11/21 05:02:08;;;;;;;;;;;;;;;4.70;75.54;99729.81;4864807;29;4418;-81
2022/11/21 05:04:34;;;;;;;;;;;;;;;4.73;75.61;99726.72;4868326;29;4160;-80
2022/11/21 05:07:01;;;;;;;;;;;;;;;4.72;75.34;99727.75;4864457;29;4332;-80
2022/11/21 05:09:27;;;;;;;;;;;;;;;4.72;75.46;99733.91;4863118;29;4443;-79
2022/11/21 05:14:38;;;;;;;;;;;;;;;4.72;75.56;99727.75;4844556;29;4569;-80
2022/11/21 05:17:05;;;;;;;;;;;;;;;4.70;75.53;99727.94;4867620;29;4627;-79
2022/11/21 05:19:32;;;;;;;;;;;;;;;4.69;75.86;99733.50;4867935;29;4595;-80
2022/11/21 05:21:58;;;;;;;;;;;;;;;4.67;75.87;99732.88;4850081;29;4617;-79
2022/11/21 05:24:25;;;;;;;;;;;;;;;4.66;75.69;99734.72;4859603;29;4315;-79
2022/11/21 05:26:51;;;;;;;;;;;;;;;4.66;75.75;99726.72;4839995;29;4446;-79
2022/11/21 05:29:18;;;;;;;;;;;;;;;4.68;75.92;99738.03;4855773;29;4455;-80
2022/11/21 05:31:45;;;;;;;;;;;;;;;4.68;75.74;99731.88;4845316;29;4487;-77
2022/11/21 05:34:11;;;;;;;;;;;;;;;4.71;75.75;99731.47;4856731;29;4413;-78
2022/11/21 05:36:38;;;;;;;;;;;;;;;4.73;75.27;99726.72;4859586;29;4128;-80
2022/11/21 05:39:04;;;;;;;;;;;;;;;4.70;75.69;99725.28;4846659;29;4590;-80
2022/11/21 05:41:32;;;;;;;;;;;;;;;4.70;75.59;99717.28;4853347;29;4567;-80
2022/11/21 05:43:57;;;;;;;;;;;;;;;4.71;75.49;99718.13;4852652;29;4646;-79
2022/11/21 05:46:24;;;;;;;;;;;;;;;4.72;75.97;99715.25;4857079;29;4097;-79
2022/11/21 05:48:50;;;;;;;;;;;;;;;4.70;75.53;99709.28;4857404;29;4519;-79
2022/11/21 05:51:17;;;;;;;;;;;;;;;4.70;75.63;99705.78;4842430;29;3835;-80
2022/11/21 05:53:43;;;;;;;;;;;;;;;4.71;75.55;99705.59;4855668;29;4746;-80
2022/11/21 05:56:10;;;;;;;;;;;;;;;4.71;75.54;99707.47;4859774;29;4049;-80
2022/11/21 05:58:36;;;;;;;;;;;;;;;4.73;75.38;99700.06;4855089;29;4777;-80
2022/11/21 06:01:03;;;;;;;;;;;;;;;4.73;75.35;99697.38;4853208;29;4510;-80
2022/11/21 06:03:29;;;;;;;;;;;;;;;4.70;75.46;99690.59;4841970;29;4022;-80
2022/11/21 06:05:56;;;;;;;;;;;;;;;4.72;75.44;99706.44;4840350;29;4599;-80
2022/11/21 06:08:22;;;;;;;;;;;;;;;4.75;75.39;99716.69;4838751;29;4505;-81
2022/11/21 06:10:49;;;;;;;;;;;;;;;4.72;75.50;99703.75;4856253;29;4077;-80
2022/11/21 06:13:21;;;;;;;;;;;;;;;4.77;75.29;99711.97;4856897;29;4424;-80
2022/11/21 06:15:48;;;;;;;;;;;;;;;4.76;75.04;99696.97;4857335;29;4584;-81
2022/11/21 06:18:15;;;;;;;;;;;;;;;4.74;75.46;99707.06;4840489;29;4324;-78
2022/11/21 06:20:41;;;;;;;;;;;;;;;4.72;75.54;99693.91;4858224;29;4286;-79
2022/11/21 06:23:08;;;;;;;;;;;;;;;4.71;75.43;99702.94;4856216;29;4572;-79
2022/11/21 06:25:34;;;;;;;;;;;;;;;4.76;75.49;99710.31;4858201;29;3990;-79
2022/11/21 06:28:01;;;;;;;;;;;;;;;4.77;75.42;99712.81;4859653;29;4377;-77
2022/11/21 06:30:28;;;;;;;;;;;;;;;4.76;75.44;99707.66;4858342;29;4516;-79
2022/11/21 06:32:54;;;;;;;;;;;;;;;4.72;75.39;99704.56;4853617;29;4503;-80
2022/11/21 06:35:21;;;;;;;;;;;;;;;4.72;75.48;99704.56;4839620;29;4304;-79
2022/11/21 06:37:47;;;;;;;;;;;;;;;4.73;75.63;99711.53;4856744;29;4442;-80
2022/11/21 06:40:14;;;;;;;;;;;;;;;4.73;75.41;99719.53;4843788;29;3483;-80
2022/11/21 06:42:40;;;;;;;;;;;;;;;4.73;75.14;99716.06;4853236;29;4475;-80
2022/11/21 06:45:07;;;;;;;;;;;;;;;4.75;75.43;99711.34;4857204;29;4651;-81
2022/11/21 06:47:33;;;;;;;;;;;;;;;4.73;75.61;99700.06;4855657;29;4370;-80
2022/11/21 06:50:00;;;;;;;;;;;;;;;4.72;75.89;99709.09;4848174;29;4765;-80
2022/11/21 06:52:26;;;;;;;;;;;;;;;4.71;75.32;99702.13;4843747;29;4574;-80
2022/11/21 06:54:53;;;;;;;;;;;;;;;4.74;75.56;99710.53;4842248;29;4599;-80
2022/11/21 06:57:20;;;;;;;;;;;;;;;4.71;75.60;99710.13;4825761;29;4585;-79
2022/11/21 06:59:46;;;;;;;;;;;;;;;4.74;75.49;99712.38;4841339;29;4555;-81
2022/11/21 07:02:13;;;;;;;;;;;;;;;4.75;75.51;99709.50;4841134;29;4541;-81
2022/11/21 07:04:39;;;;;;;;;;;;;;;4.75;75.57;99722.03;4836813;29;4696;-80
2022/11/21 07:07:06;;;;;;;;;;;;;;;4.75;75.61;99717.50;4839764;29;4691;-80
2022/11/21 07:09:34;;;;;;;;;;;;;;;4.75;75.54;99722.03;4840026;29;4681;-79
2022/11/21 07:13:20;;;;;;;;;;;;;;;4.74;75.59;99723.06;4823017;29;4544;-80
2022/11/21 07:14:46;;;;;;;;;;;;;;;4.73;75.62;99729.41;4823904;29;4547;-82
2022/11/21 07:17:13;;;;;;;;;;;;;;;4.73;75.68;99726.72;4827044;29;4558;-80
2022/11/21 07:19:40;;;;;;;;;;;;;;;4.73;75.65;99724.88;4841305;29;4657;-80
2022/11/21 07:22:07;;;;;;;;;;;;;;;4.76;75.47;99727.19;4838798;29;4761;-80
2022/11/21 07:24:33;;;;;;;;;;;;;;;4.76;75.47;99734.34;4840094;29;4511;-80
2022/11/21 07:27:00;;;;;;;;;;;;;;;4.76;75.63;99737.84;4839057;29;4152;-79
2022/11/21 07:29:26;;;;;;;;;;;;;;;4.78;75.52;99732.28;4837819;29;4679;-80
2022/11/21 07:31:53;;;;;;;;;;;;;;;4.77;75.35;99726.13;4822387;29;4683;-80
2022/11/21 07:34:19;;;;;;;;;;;;;;;4.77;75.29;99728.00;4824668;29;4544;-79
2022/11/21 07:36:46;;;;;;;;;;;;;;;4.78;75.40;99734.97;4841914;29;4666;-78
2022/11/21 07:39:12;;;;;;;;;;;;;;;4.77;75.32;99718.13;4846592;29;4554;-80
2022/11/21 07:41:39;;;;;;;;;;;;;;;4.77;75.16;99714.66;4847478;29;4526;-79
2022/11/21 07:44:06;;;;;;;;;;;;;;;4.74;75.40;99715.88;4848740;29;4522;-79
2022/11/21 07:46:32;;;;;;;;;;;;;;;4.75;75.24;99708.69;4846998;29;4613;-79
2022/11/21 07:48:59;;;;;;;;;;;;;;;4.76;75.39;99718.31;4833408;29;4596;-79
2022/11/21 07:51:25;;;;;;;;;;;;;;;4.73;75.43;99714.22;4846803;29;4548;-79
2022/11/21 07:53:52;;;;;;;;;;;;;;;4.73;75.55;99708.88;4845008;29;4710;-79
2022/11/21 07:56:18;;;;;;;;;;;;;;;4.73;75.38;99700.88;4846160;29;4720;-78
2022/11/21 07:58:45;;;;;;;;;;;;;;;4.75;75.57;99708.69;4834870;29;4753;-79
2022/11/21 08:01:12;;;;;;;;;;;;;;;4.77;75.23;99720.00;4829855;29;4716;-81
2022/11/21 08:03:38;;;;;;;;;;;;;;;4.76;75.37;99727.19;4843765;29;5259;-78
2022/11/21 08:06:05;;;;;;;;;;;;;;;4.78;75.43;99726.97;4847062;29;4690;-78
2022/11/21 08:08:31;;;;;;;;;;;;;;;4.79;75.33;99731.25;4830381;29;4717;-77
2022/11/21 08:10:58;;;;;;;;;;;;;;;4.76;75.36;99729.84;4847718;29;4642;-80
2022/11/21 08:13:24;;;;;;;;;;;;;;;4.74;75.70;99739.06;4829045;29;4803;-78
2022/11/21 08:15:51;;;;;;;;;;;;;;;4.78;75.61;99745.63;4847309;29;4852;-80
2022/11/21 08:18:18;;;;;;;;;;;;;;;4.76;75.61;99753.00;4845219;29;4672;-81
2022/11/21 08:20:45;;;;;;;;;;;;;;;4.84;75.20;99744.00;4844688;29;4635;-79
2022/11/21 08:23:11;;;;;;;;;;;;;;;4.82;75.38;99752.19;4857466;29;4690;-80
2022/11/21 08:25:38;;;;;;;;;;;;;;;4.80;75.34;99764.94;4843709;29;4617;-81
2022/11/21 08:28:05;;;;;;;;;;;;;;;4.77;75.67;99760.00;4856685;29;4721;-81
2022/11/21 08:30:31;;;;;;;;;;;;;;;4.81;75.33;99765.75;4848508;29;4706;-79
2022/11/21 08:32:58;;;;;;;;;;;;;;;4.77;75.77;99763.50;4859592;29;4731;-79
2022/11/21 08:35:24;;;;;;;;;;;;;;;4.79;75.61;99776.63;4841308;29;4524;-78
2022/11/21 08:37:51;;;;;;;;;;;;;;;4.82;75.41;99764.72;4847617;29;4546;-79
2022/11/21 08:40:17;;;;;;;;;;;;;;;4.81;75.69;99765.75;4845176;29;4537;-81
2022/11/21 08:42:44;;;;;;;;;;;;;;;4.83;75.58;99763.72;4857535;29;4869;-80
2022/11/21 08:45:11;;;;;;;;;;;;;;;4.83;75.48;99766.38;4859747;29;4585;-80
2022/11/21 08:47:37;;;;;;;;;;;;;;;4.80;75.47;99767.59;4844165;29;4725;-79
2022/11/21 08:50:04;;;;;;;;;;;;;;;4.80;75.58;99772.94;4851813;29;4536;-79
2022/11/21 08:52:30;;;;;;;;;;;;;;;4.83;75.69;99775.22;4845651;29;4590;-79
2022/11/21 08:54:57;;;;;;;;;;;;;;;4.81;75.49;99777.25;4848446;29;4599;-80
2022/11/21 08:57:23;;;;;;;;;;;;;;;4.79;75.62;99771.28;4860657;29;4733;-79
2022/11/21 08:59:50;;;;;;;;;;;;;;;4.78;75.67;99765.13;4859693;29;4748;-80
2022/11/21 09:02:16;;;;;;;;;;;;;;;4.77;75.67;99766.16;4858177;29;4996;-79
2022/11/21 09:04:43;;;;;;;;;;;;;;;4.81;75.43;99752.41;4842126;29;4596;-79
2022/11/21 09:07:09;;;;;;;;;;;;;;;4.80;75.65;99758.78;4864676;29;4626;-80
2022/11/21 09:09:36;;;;;;;;;;;;;;;4.80;75.53;99761.44;4863132;29;4630;-79
2022/11/21 09:12:02;;;;;;;;;;;;;;;4.81;75.76;99749.75;4857169;29;3036;-79
2022/11/21 09:19:57;;;;;;;;;;;;;;;4.79;75.63;99757.94;4851687;29;2123;-79
2022/11/21 09:22:24;;;;;;;;;;;;;;;4.77;75.71;99763.50;4875521;29;2742;-79
2022/11/21 09:24:50;;;;;;;;;;;;;;;4.80;75.71;99758.78;4879387;29;2261;-79
2022/11/21 09:27:17;;;;;;;;;;;;;;;4.78;75.63;99761.63;4863750;29;4706;-78
2022/11/21 09:29:43;;;;;;;;;;;;;;;4.78;75.45;99757.13;4881944;29;1481;-79
2022/11/21 09:32:10;;;;;;;;;;;;;;;4.77;76.02;99760.00;4879721;29;2335;-80
2022/11/21 09:34:36;;;;;;;;;;;;;;;4.81;75.84;99763.09;4880429;29;2225;-79
2022/11/21 09:37:03;;;;;;;;;;;;;;;4.80;75.69;99780.13;4851046;29;2176;-79
2022/11/21 09:39:29;;;;;;;;;;;;;;;4.80;75.83;99774.78;4848700;29;2246;-79
2022/11/21 09:41:56;;;;;;;;;;;;;;;4.80;75.70;99764.13;4862948;29;2479;-80
2022/11/21 09:44:22;;;;;;;;;;;;;;;4.80;75.60;99770.28;4847796;29;2294;-79
2022/11/21 09:46:49;;;;;;;;;;;;;;;4.81;75.82;99779.09;4851292;29;2155;-79
2022/11/21 09:49:15;;;;;;;;;;;;;;;4.82;75.67;99775.41;4862501;29;2045;-79
2022/11/21 09:51:42;;;;;;;;;;;;;;;4.83;75.59;99779.72;4880309;29;2139;-79
2022/11/21 09:54:08;;;;;;;;;;;;;;;4.82;75.88;99776.22;4862971;29;2104;-79
2022/11/21 09:56:35;;;;;;;;;;;;;;;4.85;75.64;99785.66;4881480;29;2047;-78
2022/11/21 09:59:01;;;;;;;;;;;;;;;4.83;75.56;99783.22;4872494;29;2103;-79
2022/11/21 10:01:28;;;;;;;;;;;;;;;4.85;75.56;99780.31;4872760;29;2178;-80
2022/11/21 10:03:54;;;;;;;;;;;;;;;4.83;75.70;99775.22;4875958;29;2170;-79
2022/11/21 10:06:21;;;;;;;;;;;;;;;4.80;75.74;99775.59;4879216;29;2042;-79
2022/11/21 10:08:48;;;;;;;;;;;;;;;4.83;75.74;99788.53;4865119;29;2321;-78
2022/11/21 10:11:14;;;;;;;;;;;;;;;4.85;75.72;99785.66;4872002;29;1821;-79
2022/11/21 10:13:42;;;;;;;;;;;;;;;4.84;75.55;99778.69;4862336;29;2241;-79
2022/11/21 10:16:08;;;;;;;;;;;;;;;4.85;75.54;99775.00;4867632;29;5280;-78
2022/11/21 10:18:35;;;;;;;;;;;;;;;4.83;75.65;99769.88;4880728;29;4658;-80
2022/11/21 10:21:01;;;;;;;;;;;;;;;4.81;75.78;99776.44;4878542;29;4682;-79
2022/11/21 10:23:28;;;;;;;;;;;;;;;4.80;75.63;99769.47;4848308;29;4797;-78
2022/11/21 10:25:54;;;;;;;;;;;;;;;4.80;75.76;99772.94;4872936;29;4423;-80
2022/11/21 10:28:21;;;;;;;;;;;;;;;4.82;75.63;99770.88;4881019;29;2723;-77
2022/11/21 10:30:48;;;;;;;;;;;;;;;4.80;75.72;99767.59;4875263;29;4399;-79
2022/11/21 10:33:14;;;;;;;;;;;;;;;4.78;75.66;99765.13;4874859;29;2123;-79
2022/11/21 10:35:41;;;;;;;;;;;;;;;4.81;75.73;99771.91;4876627;29;2292;-79
2022/11/21 10:38:08;;;;;;;;;;;;;;;4.78;75.89;99762.47;4878156;29;2004;-79
2022/11/21 10:40:34;;;;;;;;;;;;;;;4.79;75.83;99771.28;4879260;29;2284;-79
2022/11/21 10:45:14;;;;;;;;;;;;;;;4.81;75.64;99771.91;4861440;29;4427;-80
2022/11/21 10:45:48;;;;;;;;;;;;;;;4.80;75.50;99783.63;4878108;29;2562;-79
2022/11/21 10:48:14;;;;;;;;;;;;;;;4.81;75.69;99773.75;4877797;29;1975;-76
2022/11/21 10:50:41;;;;;;;;;;;;;;;4.80;75.77;99769.47;4856956;29;5377;-80
2022/11/21 10:54:31;;;;;;;;;;;;;;;4.80;75.77;99772.13;4876672;29;2013;-79
2022/11/21 10:55:53;;;;;;;;;;;;;;;4.81;75.74;99776.44;4856371;29;4748;-78
2022/11/21 10:58:20;;;;;;;;;;;;;;;4.79;75.23;99773.94;4880884;29;1088;-79
2022/11/21 11:00:47;;;;;;;;;;;;;;;4.81;75.29;99773.75;4862534;29;4544;-80
2022/11/21 11:03:13;;;;;;;;;;;;;;;4.82;75.60;99765.53;4858936;29;4561;-78
2022/11/21 11:05:40;;;;;;;;;;;;;;;4.81;75.83;99771.09;4855115;29;4763;-79
2022/11/21 11:08:06;;;;;;;;;;;;;;;4.81;75.72;99765.75;4857942;29;4921;-79
2022/11/21 11:10:33;;;;;;;;;;;;;;;4.84;75.31;99768.84;4857549;29;4511;-79
2022/11/21 11:15:44;;;;;;;;;;;;;;;4.81;75.69;99760.41;4837418;29;4555;-79
2022/11/21 11:18:10;;;;;;;;;;;;;;;4.82;75.41;99765.53;4845702;29;4695;-79
2022/11/21 11:20:37;;;;;;;;;;;;;;;4.80;75.59;99756.13;4846014;29;4523;-78
2022/11/21 11:23:04;;;;;;;;;;;;;;;4.82;75.37;99762.88;4845971;29;5015;-79
2022/11/21 11:25:30;;;;;;;;;;;;;;;4.82;75.67;99762.06;4856611;29;4726;-78
2022/11/21 11:27:57;;;;;;;;;;;;;;;4.83;75.70;99761.06;4844376;29;4501;-78
2022/11/21 11:30:23;;;;;;;;;;;;;;;4.81;75.44;99769.25;4857564;29;4448;-79
2022/11/21 11:32:50;;;;;;;;;;;;;;;4.78;75.62;99766.97;4847072;29;4491;-79
2022/11/21 11:35:16;;;;;;;;;;;;;;;4.78;75.58;99770.47;4856361;29;4606;-79
2022/11/21 11:37:43;;;;;;;;;;;;;;;4.78;75.84;99770.47;4857807;29;4483;-79
2022/11/21 11:40:10;;;;;;;;;;;;;;;4.81;75.67;99773.75;4856331;29;4320;-80
2022/11/21 11:48:04;;;;;;;;;;;;;;;4.81;75.54;99755.91;4860649;29;4503;-78
2022/11/21 11:50:31;;;;;;;;;;;;;;;4.79;75.66;99784.63;4857650;29;4488;-80
2022/11/21 11:52:58;;;;;;;;;;;;;;;4.78;75.81;99780.31;4858531;29;4573;-80
2022/11/21 11:55:24;;;;;;;;;;;;;;;4.78;75.83;99788.31;4846907;29;4529;-79
2022/11/21 11:57:51;;;;;;;;;;;;;;;4.78;75.65;99781.13;4837997;29;4519;-79
2022/11/21 12:00:17;;;;;;;;;;;;;;;4.78;75.71;99780.31;4856600;29;4625;-78
2022/11/21 12:02:44;;;;;;;;;;;;;;;4.78;75.74;99786.47;4845532;29;4503;-79
2022/11/21 12:05:11;;;;;;;;;;;;;;;4.79;75.71;99784.63;4858552;29;4650;-79
2022/11/21 12:07:37;;;;;;;;;;;;;;;4.79;75.61;99787.28;4859681;29;4688;-79
2022/11/21 12:10:04;;;;;;;;;;;;;;;4.80;75.69;99793.47;4840642;29;4666;-79
2022/11/21 12:12:30;;;;;;;;;;;;;;;4.82;75.66;99786.88;4855378;29;4698;-80
2022/11/21 12:17:44;;;;;;;;;;;;;;;4.83;75.51;99788.53;4856841;29;4656;-79
2022/11/21 12:20:11;;;;;;;;;;;;;;;4.82;75.56;99789.56;4860636;29;4733;-79
2022/11/21 12:22:38;;;;;;;;;;;;;;;4.81;75.53;99787.91;4858834;29;4694;-79
2022/11/21 12:25:04;;;;;;;;;;;;;;;4.81;75.68;99790.59;4836062;29;5213;-80
2022/11/21 12:27:31;;;;;;;;;;;;;;;4.81;75.81;99787.09;4842869;29;4706;-79
2022/11/21 12:29:57;;;;;;;;;;;;;;;4.81;75.70;99784.44;4842771;29;4390;-80
2022/11/21 12:32:24;;;;;;;;;;;;;;;4.82;75.54;99792.22;4838847;29;4606;-80
2022/11/21 12:34:50;;;;;;;;;;;;;;;4.84;75.52;99784.84;4846408;29;4546;-79
2022/11/21 12:37:18;;;;;;;;;;;;;;;4.85;75.60;99785.66;4845308;29;4575;-80
2022/11/21 12:39:44;;;;;;;;;;;;;;;4.84;75.46;99778.69;4851300;29;4643;-78
2022/11/21 12:44:55;;;;;;;;;;;;;;;4.81;75.60;99785.25;4858552;29;4651;-79
2022/11/21 12:47:22;;;;;;;;;;;;;;;4.84;75.57;99786.69;4858466;29;4683;-79
2022/11/21 12:55:13;;;;;;;;;;;;;;;4.83;75.66;99795.75;4852220;29;4732;-79
2022/11/21 12:57:39;;;;;;;;;;;;;;;4.85;75.65;99799.00;4847562;29;4689;-80
2022/11/21 13:00:07;;;;;;;;;;;;;;;4.82;75.71;99797.56;4856628;29;4760;-79
2022/11/21 13:02:34;;;;;;;;;;;;;;;4.84;75.76;99800.03;4845160;29;5258;-79
2022/11/21 13:05:01;;;;;;;;;;;;;;;4.84;75.28;99800.84;4855992;29;4651;-81
2022/11/21 13:07:28;;;;;;;;;;;;;;;4.81;75.80;99795.91;4858676;29;4568;-80
2022/11/21 13:09:54;;;;;;;;;;;;;;;4.84;75.94;99800.84;4851190;29;4711;-80
2022/11/21 13:12:21;;;;;;;;;;;;;;;4.80;75.66;99793.47;4844340;29;4745;-80
2022/11/21 13:14:47;;;;;;;;;;;;;;;4.78;75.84;99805.13;4857379;29;4671;-79
2022/11/21 13:17:14;;;;;;;;;;;;;;;4.81;75.84;99803.94;4840028;29;4588;-79
2022/11/21 13:19:40;;;;;;;;;;;;;;;4.83;75.63;99807.22;4838312;29;4567;-79
2022/11/21 13:22:07;;;;;;;;;;;;;;;4.82;76.02;99810.91;4844763;29;4613;-79
2022/11/21 13:24:34;;;;;;;;;;;;;;;4.83;75.81;99798.41;4847314;29;4667;-78
2022/11/21 13:27:00;;;;;;;;;;;;;;;4.85;75.78;99799.81;4854165;29;4631;-79
2022/11/21 13:29:27;;;;;;;;;;;;;;;4.82;75.76;99800.22;4850355;29;4681;-79
2022/11/21 13:31:53;;;;;;;;;;;;;;;4.85;75.91;99799.00;4844148;29;4737;-80